Latest Coastal Weather Observations for Maatsuyker Island

IDT60701

Issued at 11:03 pm EST Saturday 23 July 2016 (issued every 10 minutes, with the page automatically refreshed every 10 minutes)

About coastal observations | Map of coastal stations | Coastal observations for TAS | Marine services | Other Formats
Station Details ID: 094041 Name: MAATSUYKER ISLAND LIGHTHOUSE Lat: -43.66 Lon: 146.27 Height: 146.5 m
Data from the previous 72 hours. | See also: Recent months at Maatsuyker Island
Date/Time
EST
Temp
°C
Wind Pressure Rain since
9am
mm
Weather Cloud Vis
km
Sea
Height
m
Swell
Dir  Spd
kts
Gust
kts
hPa Trend Height
m
Period
s
Dir
23/11:00pm 5.5 W 25 36 1002.3 - 1.0 - - - - - - -
23/10:30pm 4.5 WNW 28 40 1001.9 - 1.0 - - - - - - -
23/10:26pm 4.9 W 25 39 1002.5 - 1.0 - - - - - - -
23/10:20pm 4.7 WSW 21 31 1002.5 - 0.8 - - - - - - -
23/10:18pm 4.9 WSW 25 31 1002.6 - 0.8 - - - - - - -
23/10:00pm 6.8 W 24 35 1001.7 - 0.8 - - - - - - -
23/09:30pm 6.6 W 23 33 1001.7 - 0.8 - - - - - - -
23/09:23pm 6.5 W 21 31 1001.6 - 0.8 - - - - - - -
23/09:14pm 6.4 W 23 30 1001.6 - 0.8 - - - - - - -
23/09:11pm 6.3 WSW 21 31 1001.6 - 0.8 - - - - - - -
23/09:03pm 6.5 WSW 24 31 1001.5 - 0.8 - - - - - - -
23/09:00pm 6.3 W 24 31 1001.6 - 0.8 - - - - - - -
23/08:53pm 5.9 W 20 30 1001.2 - 0.8 - - - - - - -
23/08:47pm 5.5 W 19 22 1001.1 - 0.8 - - - - - - -
23/08:34pm 5.1 WSW 20 30 1001.2 - 0.8 - - - - - - -
23/08:32pm 5.0 WSW 21 28 1001.2 - 0.8 - - - - - - -
23/08:30pm 5.0 W 19 27 1001.2 - 0.8 - - - - - - -
23/08:18pm 5.0 W 21 29 1001.1 - 0.8 - - - - - - -
23/08:10pm 5.1 WSW 35 45 1001.0 - 0.8 - - - - - - -
23/08:08pm 5.2 SW 37 45 1000.8 - 0.8 - - - - - - -
23/08:06pm 5.6 WSW 26 45 1000.8 - 0.8 - - - - - - -
23/08:00pm 6.0 SW 24 32 1000.4 - 0.8 - - - - - - -
23/07:30pm 4.9 SW 25 37 1000.2 - 0.8 - - - - - - -
23/07:22pm 3.6 SW 25 37 1000.2 - 0.8 - - - - - - -
23/07:17pm 3.9 SSW 46 56 1000.1 - 0.8 - - - - - - -
23/07:05pm 4.5 SSW 46 54 999.1 - 0.6 - - - - - - -
23/07:00pm 4.5 SW 33 46 999.7 - 0.6 - - - - - - -
23/06:59pm 4.5 SSW 35 46 999.5 - 0.6 - - - - - - -
23/06:58pm 4.5 SSW 38 46 999.6 - 0.6 - - - - - - -
23/06:57pm 4.6 SW 25 46 999.4 - 0.6 - - - - - - -
23/06:53pm 4.4 SW 26 36 999.6 - 0.6 - - - - - - -
23/06:46pm 4.1 SW 31 36 999.4 - 0.6 - - - - - - -
23/06:44pm 4.4 WSW 23 33 999.9 - 0.6 - - - - - - -
23/06:37pm 4.0 WSW 27 31 999.5 - 0.6 - - - - - - -
23/06:30pm 5.0 SSW 37 49 998.8 - 0.6 - - - - - - -
23/06:26pm 5.9 SSW 38 48 998.2 - 0.6 - - - - - - -
23/06:22pm 6.0 SSW 37 42 998.3 - 0.6 - - - - - - -
23/06:14pm 5.5 WSW 24 34 998.4 - 0.6 - - - - - - -
23/06:13pm 5.5 WSW 27 34 998.4 - 0.6 - - - - - - -
23/06:04pm 5.1 W 31 42 998.6 - 0.6 - - - - - - -
23/06:00pm 5.2 SW 33 55 998.7 - 0.6 - - - - - - -
23/05:57pm 5.7 SW 30 55 998.2 - 0.6 - - - - - - -
23/05:48pm 5.2 SW 31 42 997.9 - 0.6 - - - - - - -
23/05:35pm 5.8 W 31 41 997.6 - 0.6 - - - - - - -
23/05:32pm 5.9 SW 32 42 997.2 - 0.6 - - - - - - -
23/05:30pm 5.9 SW 33 42 997.3 - 0.6 - - - - - - -
23/05:24pm 6.1 SSW 30 42 997.1 - 0.6 - - - - - - -
23/05:20pm 5.5 WSW 25 35 997.0 - 0.6 - - - - - - -
23/05:17pm 4.9 WSW 23 28 997.0 - 0.6 - - - - - - -
23/05:15pm 4.6 SSW 27 33 996.9 - 0.6 - - - - - - -
23/05:10pm 4.5 SSW 39 50 996.7 - 0.6 - - - - - - -
23/05:08pm 5.1 SSW 49 59 996.4 - 0.6 - - - - - - -
23/05:07pm 5.5 SW 31 59 996.5 - 0.4 - - - - - - -
23/05:00pm 5.6 WSW 34 45 996.6 - 0.4 - - - - - - -
23/04:42pm 5.2 WSW 37 49 996.4 - 0.4 - - - - - - -
23/04:39pm 5.2 WSW 35 42 996.2 - 0.4 - - - - - - -
23/04:36pm 4.8 WSW 23 33 996.0 - 0.4 - - - - - - -
23/04:30pm 4.2 WSW 24 32 996.0 - 0.4 - - - - - - -
23/04:27pm 3.9 WSW 21 27 996.0 - 0.4 - - - - - - -
23/04:22pm 3.5 SW 32 42 996.1 - 0.4 - - - - - - -
23/04:17pm 2.7 SSW 37 42 995.9 - 0.4 - - - - - - -
23/04:11pm 4.0 SSW 49 61 995.0 - 0.4 - - - - - - -
23/04:10pm 4.9 SW 31 61 995.5 - 0.2 - - - - - - -
23/04:09pm 5.2 WSW 30 40 995.5 - 0.2 - - - - - - -
23/04:00pm 4.3 WSW 26 35 995.2 - 0.2 - - - - - - -
23/03:55pm 3.7 WSW 22 28 995.0 - 0.2 - - - - - - -
23/03:39pm 4.9 SW 37 47 994.5 - 0.2 - - - - - - -
23/03:37pm 4.8 SSW 39 47 994.2 - 0.2 - - - - - - -
23/03:30pm 4.6 WSW 29 48 994.2 - 0.2 - - - - - - -
23/03:14pm 5.3 WSW 29 39 993.5 - 0.2 - - - - - - -
23/03:13pm 5.2 WSW 31 39 993.5 - 0.2 - - - - - - -
23/03:12pm 5.1 W 28 39 993.5 - 0.2 - - - - - - -
23/03:06pm 4.8 W 29 37 993.3 - 0.2 - - - - - - -
23/03:00pm 5.1 WSW 23 33 993.2 - 0.2 - - - - - - -
23/02:59pm 5.0 WSW 23 33 993.1 - 0.2 - - - - - - -
23/02:51pm 3.5 W 19 24 993.0 - 0.2 - - - - - - -
23/02:43pm 3.3 SW 34 44 993.1 - 0.2 - - - - - - -
23/02:36pm 3.8 SW 35 44 992.7 - 0.2 - - - - - - -
23/02:34pm 4.9 WSW 25 41 992.6 - 0.2 - - - - - - -
23/02:30pm 4.9 W 23 32 992.4 - 0.2 - - - - - - -
23/02:00pm 4.3 WSW 27 41 991.9 - 0.2 - - - - - - -
23/01:45pm 2.6 WSW 27 37 991.6 - 0.2 - - - - - - -
23/01:44pm 2.6 SW 25 30 991.6 - 0.2 - - - - - - -
23/01:37pm 2.1 WSW 40 50 991.8 - 0.2 - - - - - - -
23/01:34pm 3.8 SW 42 50 991.4 - 0.2 - - - - - - -
23/01:31pm 4.5 WSW 27 39 991.1 - 0.2 - - - - - - -
23/01:30pm 4.7 WSW 27 36 991.0 - 0.2 - - - - - - -
23/01:16pm 3.6 WSW 33 43 990.9 - 0.2 - - - - - - -
23/01:12pm 3.7 WSW 34 39 990.8 - 0.2 - - - - - - -
23/01:05pm 3.1 W 19 30 990.4 - 0.0 - - - - - - -
23/01:03pm 2.9 W 19 26 990.6 - 0.0 - - - - - - -
23/01:00pm 2.4 SW 31 42 990.7 - 0.0 - - - - - - -
23/12:55pm 4.3 WSW 26 38 990.2 - 0.0 - - - - - - -
23/12:54pm 4.4 WSW 25 31 990.4 - 0.0 - - - - - - -
23/12:36pm 4.7 WNW 35 45 989.0 - 0.0 - - - - - - -
23/12:30pm 4.8 WNW 35 42 988.9 - 0.0 - - - - - - -
23/12:07pm 4.8 W 35 45 989.6 - 0.0 - - - - - - -
23/12:05pm 4.8 W 33 42 989.4 - 0.0 - - - - - - -
23/12:00pm 4.7 W 31 45 989.6 - 0.0 - - - - - - -
23/11:58am 4.9 WSW 33 45 989.4 - 0.0 - - - - - - -
23/11:48am 5.5 SW 31 41 989.0 - 0.0 - - - - - - -
23/11:32am 5.6 W 32 44 988.8 - 0.0 - - - - - - -
23/11:30am 5.8 W 32 40 988.8 - 0.0 - - - - - - -
23/11:00am 5.5 W 31 48 988.3 - 0.0 - - - - - - -
23/10:58am 5.2 W 30 40 988.2 - 0.0 - - - - - - -
23/10:52am 4.8 W 30 36 988.3 - 0.0 - - - - - - -
23/10:48am 5.3 WNW 37 50 987.0 - 0.0 - - - - - - -
23/10:42am 4.4 WNW 35 39 987.3 - 0.0 - - - - - - -
23/10:39am 4.1 WNW 46 56 987.1 - 0.0 - - - - - - -
23/10:32am 4.2 WNW 49 56 986.5 - 0.0 - - - - - - -
23/10:30am 5.0 WNW 34 53 987.8 - 0.0 - - - - - - -
23/10:13am 5.1 WNW 31 43 986.9 - 0.0 - - - - - - -
23/10:05am 4.5 W 29 34 987.5 - 0.0 - - - - - - -
23/10:00am 4.0 WSW 31 42 987.6 - 0.0 - - - - - - -
23/09:59am 4.3 WSW 33 42 987.8 - 0.0 - - - - - - -
23/09:48am 4.9 W 30 42 987.5 - 0.0 - - - - - - -
23/09:43am 5.5 W 29 37 987.2 - 0.0 - - - - - - -
23/09:30am 4.7 NW 29 34 986.3 - 0.0 - - - - - - -
23/09:29am 4.5 NW 29 34 986.2 - 0.0 - - - - - - -
23/09:02am 3.3 W 23 33 986.9 - 0.0 - - - - - - -
23/09:00am 3.1 W 23 - 987.1 R 13.0 Distant precip. Partly cloudy 15 2 5.0 12 SW
23/08:56am 3.2 W 25 33 986.9 - 13.4 - - - - - - -
23/08:45am 4.3 W 37 47 986.8 - 13.4 - - - - - - -
23/08:30am 4.2 W 25 35 986.3 - 13.4 - - - - - - -
23/08:16am 3.9 WSW 28 39 986.0 - 13.4 - - - - - - -
23/08:14am 4.4 WSW 26 32 986.1 - 13.4 - - - - - - -
23/08:00am 4.9 WNW 33 42 985.1 - 13.4 - - - - - - -
23/07:35am 5.2 WNW 34 44 985.0 - 13.4 - - - - - - -
23/07:30am 5.0 WNW 37 44 985.0 - 13.4 - - - - - - -
23/07:08am 4.9 W 32 42 984.8 - 13.4 - - - - - - -
23/07:00am 4.7 W 34 42 984.6 - 13.4 - - - - - - -
23/06:30am 5.3 W 27 37 984.0 - 13.4 - - - - - - -
23/06:11am 5.4 W 26 41 983.5 - 13.2 - - - - - - -
23/06:00am 4.9 W 22 32 983.9 R 13.2 Distant precip. Cloudy 12 2 3.5 13 SW
23/05:47am 4.2 W 23 27 983.7 - 13.2 - - - - - - -
23/05:43am 3.8 WSW 27 34 983.7 - 13.2 - - - - - - -
23/05:34am 5.0 W 25 45 983.2 - 13.2 - - - - - - -
23/05:30am 4.8 W 23 32 983.2 - 13.2 - - - - - - -
23/05:09am 4.4 W 21 31 983.0 - 13.2 - - - - - - -
23/05:00am 4.0 W 21 30 982.9 - 13.2 - - - - - - -
23/04:40am 3.3 WSW 28 38 983.2 - 13.0 - - - - - - -
23/04:39am 3.4 WSW 29 38 983.2 - 13.0 - - - - - - -
23/04:30am 4.6 WNW 34 43 982.8 - 12.8 - - - - - - -
23/04:05am 4.4 W 31 43 982.5 - 12.8 - - - - - - -
23/04:00am 4.7 W 31 39 982.4 - 12.8 - - - - - - -
23/03:56am 5.1 W 32 39 982.2 - 12.8 - - - - - - -
23/03:31am 5.4 WSW 28 42 981.7 - 12.6 - - - - - - -
23/03:30am 5.2 WSW 27 36 981.8 - 12.6 - - - - - - -
23/03:27am 5.4 WSW 26 36 981.9 - 12.6 - - - - - - -
23/03:03am 5.8 WNW 31 41 981.4 - 11.6 - - - - - - -
23/03:00am 6.0 WNW 33 41 981.1 - 11.6 - - - - - - -
23/02:40am 6.0 NW 35 39 980.7 - 11.6 - - - - - - -
23/02:32am 5.8 NW 46 56 980.3 - 11.6 - - - - - - -
23/02:30am 5.8 NW 47 56 980.2 - 11.6 - - - - - - -
23/02:13am 4.6 NW 51 57 979.8 - 11.4 - - - - - - -
23/02:11am 5.8 NW 37 51 980.9 - 11.0 - - - - - - -
23/02:00am 5.2 NNW 22 34 981.2 - 10.8 - - - - - - -
23/01:46am 5.6 NNW 22 32 981.3 - 10.6 - - - - - - -
23/01:41am 5.6 NNW 21 27 981.4 - 10.6 - - - - - - -
23/01:36am 5.6 N 21 27 981.2 - 10.6 - - - - - - -
23/01:30am 6.2 NW 29 39 980.8 - 10.6 - - - - - - -
23/01:26am 6.3 NW 32 39 980.9 - 10.4 - - - - - - -
23/01:24am 6.4 NNW 21 33 980.9 - 10.4 - - - - - - -
23/01:07am 6.0 N 17 20 981.8 - 10.4 - - - - - - -
23/01:00am 5.9 NW 23 29 982.0 - 10.4 - - - - - - -
23/12:53am 6.4 NW 22 25 982.4 - 10.4 - - - - - - -
23/12:41am 5.7 NNW 17 27 982.3 - 10.4 - - - - - - -
23/12:30am 5.8 NNW 18 24 982.6 - 10.4 - - - - - - -
23/12:07am 5.4 NNW 21 31 983.4 - 10.4 - - - - - - -
23/12:00am 6.1 NNW 24 31 982.9 - 10.4 - - - - - - -
 
Date/Time
EST
Temp
°C
Wind Pressure Rain since
9am
mm
Weather Cloud Vis
km
Sea
Height
m
Swell
Dir  Spd
kts
Gust
kts
hPa Trend Height
m
Period
s
Dir
22/11:34pm 6.8 NNW 25 35 983.1 - 10.2 - - - - - - -
22/11:30pm 6.7 NNW 28 36 983.1 - 10.2 - - - - - - -
22/11:22pm 6.8 NNW 25 35 982.8 - 10.2 - - - - - - -
22/11:00pm 7.3 NNW 25 31 983.0 - 10.2 - - - - - - -
22/10:52pm 6.4 NW 30 40 983.4 - 10.2 - - - - - - -
22/10:48pm 7.1 NW 32 35 983.3 - 10.2 - - - - - - -
22/10:30pm 7.1 NNW 21 28 983.5 - 10.2 - - - - - - -
22/10:24pm 6.3 NNW 22 32 983.8 - 10.2 - - - - - - -
22/10:21pm 6.1 NNW 25 32 983.5 - 10.2 - - - - - - -
22/10:15pm 6.3 NW 39 42 983.0 - 10.0 - - - - - - -
22/10:03pm 7.1 NW 24 35 983.8 - 9.6 - - - - - - -
22/10:00pm 7.7 NW 23 28 983.7 - 9.6 - - - - - - -
22/09:30pm 7.3 NW 25 29 984.1 - 9.6 - - - - - - -
22/09:00pm 7.3 WNW 23 28 984.5 - 9.6 - - - - - - -
22/08:52pm 7.3 NW 23 26 984.3 - 9.6 - - - - - - -
22/08:30pm 7.0 W 19 25 984.1 - 9.6 - - - - - - -
22/08:00pm 7.0 W 24 29 984.3 - 9.6 - - - - - - -
22/07:42pm 7.1 WNW 27 37 984.5 - 9.6 - - - - - - -
22/07:30pm 7.2 WNW 30 38 984.5 - 9.6 - - - - - - -
22/07:00pm 6.4 WNW 33 44 983.6 - 9.6 - - - - - - -
22/06:58pm 5.9 WNW 34 44 983.6 - 9.6 - - - - - - -
22/06:54pm 5.8 WNW 39 44 983.5 - 9.4 - - - - - - -
22/06:49pm 6.1 NW 51 56 982.2 - 9.4 - - - - - - -
22/06:30pm 5.4 W 36 51 983.6 - 9.4 - - - - - - -
22/06:00pm 6.8 W 37 52 982.9 - 9.4 - - - - - - -
22/05:30pm 5.2 WNW 33 48 982.0 - 8.8 - - - - - - -
22/05:27pm 7.4 WNW 30 42 981.8 - 8.0 - - - - - - -
22/05:00pm 7.0 WNW 35 43 980.7 - 8.0 - - - - - - -
22/04:46pm 6.5 W 33 43 980.5 - 8.0 - - - - - - -
22/04:44pm 6.5 W 31 38 980.6 - 8.0 - - - - - - -
22/04:34pm 6.7 W 42 52 980.2 - 8.0 - - - - - - -
22/04:30pm 7.1 WNW 43 52 979.8 - 8.0 - - - - - - -
22/04:16pm 7.5 WNW 46 56 978.2 - 8.0 - - - - - - -
22/04:13pm 7.8 WNW 45 53 978.0 - 8.0 - - - - - - -
22/04:00pm 7.7 NW 57 62 975.9 - 8.0 - - - - - - -
22/03:55pm 7.8 NW 57 61 976.0 - 8.0 - - - - - - -
22/03:37pm 8.3 NW 46 57 975.6 - 7.6 - - - - - - -
22/03:30pm 8.7 NW 41 46 975.9 - 7.6 - - - - - - -
22/03:00pm 8.6 NW 41 45 977.0 - 7.6 - - - - - - -
22/02:30pm 8.7 NW 48 54 976.7 - 7.6 - - - - - - -
22/02:24pm 8.8 NW 51 58 976.1 - 7.4 - - - - - - -
22/02:00pm 9.3 NNW 45 56 974.0 - 7.2 - - - - - - -
22/01:36pm 9.0 NNW 44 55 973.6 - 6.6 - - - - - - -
22/01:30pm 9.3 NNW 44 51 974.4 - 6.4 - - - - - - -
22/01:02pm 9.8 NNW 30 45 975.3 - 5.4 - - - - - - -
22/01:00pm 9.9 NNW 29 38 976.0 - 5.2 - - - - - - -
22/12:45pm 10.0 NNW 33 44 975.6 - 5.2 - - - - - - -
22/12:43pm 10.0 NNW 34 40 975.7 - 5.0 - - - - - - -
22/12:30pm 9.4 NNW 24 35 976.8 - 4.6 - - - - - - -
22/12:00pm 9.5 NNW 23 34 977.9 - 2.2 - - - - - - -
22/11:48am 10.4 NNW 35 46 977.3 - 1.6 - - - - - - -
22/11:31am 10.7 NNW 24 34 978.4 - 1.6 - - - - - - -
22/11:30am 10.7 NNW 23 30 978.5 - 1.6 - - - - - - -
22/11:24am 10.4 NNW 23 30 978.8 - 1.6 - - - - - - -
22/11:00am 10.8 NNW 34 45 979.1 - 0.4 - - - - - - -
22/10:47am 10.9 NNW 30 40 979.6 - 0.4 - - - - - - -
22/10:38am 10.3 NNW 33 38 979.7 - 0.4 - - - - - - -
22/10:30am 9.9 NW 43 55 979.1 - 0.4 - - - - - - -
22/10:20am 10.5 NNW 40 58 979.8 - 0.0 - - - - - - -
22/10:03am 11.5 NNW 38 48 979.7 - 0.0 - - - - - - -
22/10:00am 11.5 NNW 40 49 979.8 - 0.0 - - - - - - -
22/09:30am 11.5 NNW 39 49 980.1 - 0.0 - - - - - - -
22/09:00am 11.5 NNW 40 54 980.4 F 7.6 Distant precip. Mostly cloudy 14 3 4.0 14 W
22/08:47am 11.3 NNW 42 52 980.2 - 7.6 - - - - - - -
22/08:30am 11.6 NW 42 48 980.3 - 7.6 - - - - - - -
22/08:00am 11.7 NNW 41 51 980.9 - 7.6 - - - - - - -
22/07:47am 11.5 NNW 44 54 980.3 - 7.6 - - - - - - -
22/07:30am 11.4 NNW 48 54 980.0 - 7.6 - - - - - - -
22/07:26am 11.5 NW 49 53 979.8 - 7.6 - - - - - - -
22/07:00am 11.2 NNW 38 48 980.7 - 7.6 - - - - - - -
22/06:30am 10.9 NNW 38 48 979.7 - 7.4 - - - - - - -
22/06:00am 10.6 NNW 32 - 979.8 F - Distant precip. Mostly cloudy 10 3 4.0 14 W
22/05:56am 10.5 NNW 35 47 979.6 - 7.2 - - - - - - -
22/05:45am 10.3 NNW 37 42 979.7 - 6.6 - - - - - - -
22/05:30am 12.1 NNW 49 68 977.8 - 5.0 - - - - - - -
22/05:15am 13.9 NNW 43 59 977.4 - 4.8 - - - - - - -
22/05:00am 13.7 NNW 42 59 979.4 - 4.6 - - - - - - -
22/04:44am 13.3 NNW 36 54 979.7 - 4.6 - - - - - - -
22/04:30am 12.5 NNW 30 42 981.3 - 4.4 - - - - - - -
22/04:00am 11.9 N 23 38 982.9 - 4.2 - - - - - - -
22/03:39am 11.4 N 22 32 983.9 - 3.8 - - - - - - -
22/03:30am 11.4 N 23 31 984.6 - 3.8 - - - - - - -
22/03:28am 11.4 N 22 28 984.7 - 3.6 - - - - - - -
22/03:00am 10.5 N 13 24 986.9 - 3.0 - - - - - - -
22/02:30am 10.1 NNE 13 19 988.8 - 2.4 - - - - - - -
22/02:00am 10.1 NNE 10 17 990.6 - 1.2 - - - - - - -
22/01:30am 10.2 N 10 12 992.3 - 1.2 - - - - - - -
22/01:00am 11.3 NNW 16 24 994.1 - 0.2 - - - - - - -
22/12:37am 11.9 N 16 26 994.4 - 0.0 - - - - - - -
22/12:30am 11.9 N 17 25 994.6 - 0.0 - - - - - - -
22/12:00am 11.6 N 15 22 995.2 - 0.0 - - - - - - -
 
Date/Time
EST
Temp
°C
Wind Pressure Rain since
9am
mm
Weather Cloud Vis
km
Sea
Height
m
Swell
Dir  Spd
kts
Gust
kts
hPa Trend Height
m
Period
s
Dir
21/11:30pm 11.8 NNW 18 27 996.1 - 0.0 - - - - - - -
21/11:00pm 11.7 NNW 19 28 997.8 - 0.0 - - - - - - -
21/10:30pm 11.6 NNW 19 25 998.6 - 0.0 - - - - - - -
21/10:00pm 11.4 NNW 21 29 999.2 - 0.0 - - - - - - -
21/09:30pm 11.2 NNW 20 28 1000.1 - 0.0 - - - - - - -
21/09:00pm 11.2 NNW 21 27 1000.5 - 0.0 - - - - - - -
21/08:56pm 11.2 NNW 20 27 1000.4 - 0.0 - - - - - - -
21/08:30pm 10.6 N 15 23 1000.6 - 0.0 - - - - - - -
21/08:00pm 10.6 N 17 22 1001.2 - 0.0 - - - - - - -
21/07:30pm 10.7 N 17 23 1002.3 - 0.0 - - - - - - -
21/07:12pm 11.2 N 17 27 1002.4 - 0.0 - - - - - - -
21/07:00pm 11.2 N 12 19 1002.9 - 0.0 - - - - - - -
21/06:30pm 11.1 N 11 14 1003.6 - 0.0 - - - - - - -
21/06:00pm 11.1 NNW 13 18 1004.1 - 0.0 - - - - - - -
21/05:30pm 11.1 NNW 15 21 1004.2 - 0.0 - - - - - - -
21/05:00pm 11.2 NNW 14 19 1004.5 - 0.0 - - - - - - -
21/04:30pm 11.3 NNW 16 24 1004.8 - 0.0 - - - - - - -
21/04:00pm 11.4 NNW 16 22 1005.2 - 0.0 - - - - - - -
21/03:30pm 11.4 NNW 16 21 1006.0 - 0.0 - - - - - - -
21/03:00pm 11.5 NNW 15 19 1006.5 - 0.0 - - - - - - -
21/02:30pm 11.5 NNW 13 18 1006.5 - 0.0 - - - - - - -
21/02:00pm 11.3 NNW 15 20 1007.1 - 0.0 - - - - - - -
21/01:30pm 12.0 NNW 14 20 1007.6 - 0.0 - - - - - - -
21/01:00pm 11.6 NNW 17 24 1008.1 - 0.0 - - - - - - -
21/12:30pm 11.5 NNW 16 21 1008.8 - 0.0 - - - - - - -
21/12:00pm 11.4 NNW 18 25 1009.8 - 0.0 - - - - - - -
21/11:30am 11.2 NNW 17 24 1010.4 - 0.0 - - - - - - -
21/11:00am 10.9 NNW 16 23 1011.2 - 0.0 - - - - - - -
21/10:30am 10.4 NNW 19 25 1011.6 - 0.0 - - - - - - -
21/10:00am 9.9 NNW 19 26 1012.0 - 0.0 - - - - - - -
21/09:30am 9.8 NNW 17 25 1012.3 - 0.0 - - - - - - -
21/09:00am 9.7 NNW 16 21 1012.6 F 0.0 Distant precip. Mostly cloudy 12 1 4.0 13 SW
21/08:30am 9.7 NNW 15 20 1012.9 - 0.0 - - - - - - -
21/08:00am 9.2 NNW 16 21 1013.1 - 0.0 - - - - - - -
21/07:30am 8.9 NNW 17 22 1013.5 - 0.0 - - - - - - -
21/07:00am 9.4 NNW 17 22 1013.3 - 0.0 - - - - - - -
21/06:30am 9.1 NNW 17 23 1013.6 - 0.0 - - - - - - -
21/06:00am 9.8 NNW 16 24 1013.9 F 0.0 Distant precip. Cloudy 10 1 4.0 14 W
21/05:30am 9.4 NNW 19 23 1013.8 - 0.0 - - - - - - -
21/05:00am 9.7 NNW 17 22 1014.0 - 0.0 - - - - - - -
21/04:30am 9.4 NNW 16 22 1014.3 - 0.0 - - - - - - -
21/04:00am 9.1 NNW 19 24 1014.8 - 0.0 - - - - - - -
21/03:30am 9.6 NNW 20 27 1014.9 - 0.0 - - - - - - -
21/03:00am 10.1 NNW 17 22 1015.4 - 0.0 - - - - - - -
21/02:30am 10.0 NNW 16 21 1015.7 - 0.0 - - - - - - -
21/02:00am 10.0 NNW 17 24 1015.8 - 0.0 - - - - - - -
21/01:55am 10.0 NNW 16 26 1016.0 - 0.0 - - - - - - -
21/01:30am 10.1 NNW 17 24 1016.0 - 0.0 - - - - - - -
21/01:00am 9.9 NNW 19 23 1016.2 - 0.0 - - - - - - -
21/12:30am 9.9 NNW 18 23 1016.6 - 0.0 - - - - - - -
21/12:00am 9.8 NNW 19 25 1016.8 - 0.0 - - - - - - -
 
Date/Time
EST
Temp
°C
Wind Pressure Rain since
9am
mm
Weather Cloud Vis
km
Sea
Height
m
Swell
Dir  Spd
kts
Gust
kts
hPa Trend Height
m
Period
s
Dir
20/11:30pm 9.8 NNW 20 25 1017.0 - 0.0 - - - - - - -

Other Formats:

Comma delimited format used in spreadsheet applications
http://www.bom.gov.au/fwo/IDT60701/IDT60701.94962.axf

JavaScript Object Notation format (JSON) in row-major order
http://www.bom.gov.au/fwo/IDT60701/IDT60701.94962.json